Great Valley, New York
Current Conditions -  °F | °C
As of 5:15 PM on Friday 31 Oct 2014 (Local Time) from KOLE Reporting Station
Drizzle Drizzle  
Wind Chill: 33°   Ceiling: 1000
Heat Index: 37°   Visibility: 7mi
Dew Point: 37°   Wind: 6mph
Humidity: 100%   Direction: 120°ESE
Pressure: 29.87"   Gusts: NA
Location:  42.21°N, 78.64°W
Report Text: KOLE 312115Z AUTO 12005KT 7SM DZ BKN010 OVC019 03/03 A2987 RMK AO2
Loading
Personal Weather Stations






























Interactive Weather Map
Tropical Storm Tracking
New forecast layout! Learn more

10-Day Weather Forecast

Advertisements
Track Severe Weather on mobile